Portada
METAR-TAF:

METAR-TAF

Aeroports :

Gaya, Índia

latitud: 24-44-40N, longitud: 84-57-04E, altitud: 116 m

Observació

L'informe es va fer fa 56 minuts, a les 14:00 UTC
Vent 3 kt del Sud/Sud-Oest
Temperatura 27°C
Humitat 54%
Pressió 1007 hPa
Visibilitat: 3000 m
Núvols disperses a una alçada de 2000 ft
Cel ennuvolat a una alçada de 10000 ft
calitja

METAR: VEGY 191400Z 21003KT 3000 HZ SCT020 BKN100 27/17 Q1007

Hora: 20:26 (14:56 UTC)

Pronòstic

L'informe es va fer fa 56 minuts, a les 14:00 UTC
Pronòstic vàlid del 19 a les 15 UTC al 19 a les 24 UTC
Vent 4 kt del Sud/Sud-Oest
Visibilitat: 3000 m
Núvols disperses a una alçada de 2000 ft
Cel ennuvolat a una alçada de 10000 ft
calitja
Evolucionant progressivament
l' 19 a les 21 UTC al 19 a les 23 UTC
Visibilitat: 2000 m
Núvols disperses a una alçada de 2000 ft
Núvols disperses a una alçada de 10000 ft
calitja

TAF: VEGY 191400Z 1915/1924 21004KT 3000 HZ SCT020 BKN100 BECMG 1921/1923 2000 HZ SCT020 SCT100

Observacions i pronòstics meteorològics de més de 4000 aeroports (METAR i TAF).

Les estacions disponibles són els punts grocs i vermells al mapa.

Posi el ratolí al punt desitjat per veure el nom de l'estació.

Feu clic per veure les observacions i els pronòstics meteorològics.

Per canviar el mapa: feu clic els botons verds amb una creu de color negre per apropar; al botó verd amb un guió per allunyar la imatge; o en les fletxes verdes per a mapes adjacents.


METAR-TAF: